sensor_id;sensor_type;location;lat;lon;timestamp;pressure;altitude;pressure_sealevel;temperature;humidity
71917;BME280;59793;46.506;6.674;2023-04-05T00:00:53;97334.47;;;4.30;49.97
71917;BME280;59793;46.506;6.674;2023-04-05T00:03:19;97292.25;;;3.92;50.66
71917;BME280;59793;46.506;6.674;2023-04-05T00:05:45;97329.44;;;4.20;50.38
71917;BME280;59793;46.506;6.674;2023-04-05T00:08:14;97334.41;;;4.22;50.23
71917;BME280;59793;46.506;6.674;2023-04-05T00:10:47;97332.94;;;4.16;50.38
71917;BME280;59793;46.506;6.674;2023-04-05T00:13:12;97316.66;;;4.10;50.41
71917;BME280;59793;46.506;6.674;2023-04-05T00:15:38;97327.91;;;4.19;49.90
71917;BME280;59793;46.506;6.674;2023-04-05T00:18:03;97301.84;;;4.05;50.12
71917;BME280;59793;46.506;6.674;2023-04-05T00:20:28;97309.22;;;4.03;50.31
71917;BME280;59793;46.506;6.674;2023-04-05T00:22:54;97307.44;;;4.13;49.93
71917;BME280;59793;46.506;6.674;2023-04-05T00:25:19;97307.66;;;4.02;50.47
71917;BME280;59793;46.506;6.674;2023-04-05T00:27:46;97302.94;;;3.91;50.37
71917;BME280;59793;46.506;6.674;2023-04-05T00:30:11;97321.88;;;4.10;49.97
71917;BME280;59793;46.506;6.674;2023-04-05T00:32:37;97328.31;;;4.13;49.79
71917;BME280;59793;46.506;6.674;2023-04-05T00:35:03;97297.91;;;4.08;49.25
71917;BME280;59793;46.506;6.674;2023-04-05T00:37:28;97316.31;;;4.25;49.31
71917;BME280;59793;46.506;6.674;2023-04-05T00:39:54;97336.03;;;4.31;49.60
71917;BME280;59793;46.506;6.674;2023-04-05T00:42:21;97308.72;;;4.15;49.63
71917;BME280;59793;46.506;6.674;2023-04-05T00:44:47;97294.72;;;4.11;49.49
71917;BME280;59793;46.506;6.674;2023-04-05T00:47:12;97311.31;;;4.29;49.60
71917;BME280;59793;46.506;6.674;2023-04-05T00:49:39;97327.00;;;4.38;49.23
71917;BME280;59793;46.506;6.674;2023-04-05T00:52:04;97332.94;;;4.29;49.24
71917;BME280;59793;46.506;6.674;2023-04-05T00:54:30;97273.19;;;3.92;49.14
71917;BME280;59793;46.506;6.674;2023-04-05T00:57:00;97252.28;;;3.83;49.23
71917;BME280;59793;46.506;6.674;2023-04-05T00:59:26;97292.19;;;4.06;48.99
71917;BME280;59793;46.506;6.674;2023-04-05T01:02:09;97295.81;;;3.96;49.69
71917;BME280;59793;46.506;6.674;2023-04-05T01:04:37;97288.84;;;3.92;49.64
71917;BME280;59793;46.506;6.674;2023-04-05T01:07:14;97319.53;;;4.08;49.78
71917;BME280;59793;46.506;6.674;2023-04-05T01:12:16;97284.03;;;3.71;50.32
71917;BME280;59793;46.506;6.674;2023-04-05T01:14:43;97322.44;;;3.93;50.53
71917;BME280;59793;46.506;6.674;2023-04-05T01:17:09;97303.91;;;3.95;50.30
71917;BME280;59793;46.506;6.674;2023-04-05T01:19:34;97244.38;;;3.61;50.60
71917;BME280;59793;46.506;6.674;2023-04-05T01:25:36;97309.41;;;4.07;49.92
71917;BME280;59793;46.506;6.674;2023-04-05T01:28:09;97272.94;;;3.79;50.05
71917;BME280;59793;46.506;6.674;2023-04-05T01:30:39;97299.16;;;4.11;50.04
71917;BME280;59793;46.506;6.674;2023-04-05T01:38:28;97297.41;;;4.06;50.08
71917;BME280;59793;46.506;6.674;2023-04-05T01:40:55;97285.75;;;3.90;50.45
71917;BME280;59793;46.506;6.674;2023-04-05T01:43:21;97281.22;;;3.81;50.69
71917;BME280;59793;46.506;6.674;2023-04-05T01:45:46;97313.75;;;3.98;50.60
71917;BME280;59793;46.506;6.674;2023-04-05T01:48:12;97288.06;;;3.91;50.58
71917;BME280;59793;46.506;6.674;2023-04-05T01:50:38;97264.41;;;3.46;51.07
71917;BME280;59793;46.506;6.674;2023-04-05T01:53:03;97317.69;;;3.81;50.49
71917;BME280;59793;46.506;6.674;2023-04-05T01:55:29;97320.78;;;3.97;50.35
71917;BME280;59793;46.506;6.674;2023-04-05T01:57:55;97298.41;;;3.82;49.84
71917;BME280;59793;46.506;6.674;2023-04-05T02:00:21;97295.41;;;3.75;50.19
71917;BME280;59793;46.506;6.674;2023-04-05T02:02:47;97311.53;;;3.91;49.85
71917;BME280;59793;46.506;6.674;2023-04-05T02:05:12;97294.94;;;3.73;50.17
71917;BME280;59793;46.506;6.674;2023-04-05T02:07:37;97309.97;;;3.90;50.75
71917;BME280;59793;46.506;6.674;2023-04-05T02:10:03;97304.78;;;3.90;50.58
71917;BME280;59793;46.506;6.674;2023-04-05T02:12:29;97331.53;;;3.96;51.13
71917;BME280;59793;46.506;6.674;2023-04-05T02:14:54;97333.72;;;4.16;50.77
71917;BME280;59793;46.506;6.674;2023-04-05T02:17:20;97332.03;;;4.34;50.32
71917;BME280;59793;46.506;6.674;2023-04-05T02:19:46;97302.41;;;4.16;49.96
71917;BME280;59793;46.506;6.674;2023-04-05T02:22:12;97331.59;;;4.18;49.77
71917;BME280;59793;46.506;6.674;2023-04-05T02:24:37;97339.69;;;4.30;50.34
71917;BME280;59793;46.506;6.674;2023-04-05T02:27:03;97345.91;;;4.21;50.67
71917;BME280;59793;46.506;6.674;2023-04-05T02:29:28;97307.56;;;4.07;49.92
71917;BME280;59793;46.506;6.674;2023-04-05T02:31:56;97321.56;;;3.98;49.59
71917;BME280;59793;46.506;6.674;2023-04-05T02:34:21;97350.81;;;4.22;49.34
71917;BME280;59793;46.506;6.674;2023-04-05T02:36:49;97304.66;;;4.09;49.30
71917;BME280;59793;46.506;6.674;2023-04-05T02:39:15;97330.81;;;4.31;48.51
71917;BME280;59793;46.506;6.674;2023-04-05T02:41:40;97301.66;;;4.02;49.04
71917;BME280;59793;46.506;6.674;2023-04-05T02:44:06;97350.13;;;4.17;49.17
71917;BME280;59793;46.506;6.674;2023-04-05T02:46:31;97314.25;;;4.00;49.59
71917;BME280;59793;46.506;6.674;2023-04-05T02:48:56;97342.09;;;4.13;50.53
71917;BME280;59793;46.506;6.674;2023-04-05T02:51:22;97323.66;;;4.10;50.33
71917;BME280;59793;46.506;6.674;2023-04-05T02:53:48;97315.19;;;4.04;49.74
71917;BME280;59793;46.506;6.674;2023-04-05T02:56:13;97310.88;;;3.86;50.05
71917;BME280;59793;46.506;6.674;2023-04-05T02:58:39;97342.59;;;4.15;49.55
71917;BME280;59793;46.506;6.674;2023-04-05T03:01:05;97309.28;;;3.98;49.73
71917;BME280;59793;46.506;6.674;2023-04-05T03:03:31;97329.19;;;4.08;50.57
71917;BME280;59793;46.506;6.674;2023-04-05T03:06:00;97339.69;;;4.17;50.14
71917;BME280;59793;46.506;6.674;2023-04-05T03:08:34;97308.34;;;3.94;50.53
71917;BME280;59793;46.506;6.674;2023-04-05T03:11:00;97333.03;;;4.24;50.15
71917;BME280;59793;46.506;6.674;2023-04-05T03:13:26;97283.34;;;3.93;50.42
71917;BME280;59793;46.506;6.674;2023-04-05T03:15:54;97326.19;;;4.28;50.53
71917;BME280;59793;46.506;6.674;2023-04-05T03:18:19;97321.75;;;4.15;50.76
71917;BME280;59793;46.506;6.674;2023-04-05T03:20:46;97329.94;;;4.22;50.69
71917;BME280;59793;46.506;6.674;2023-04-05T03:23:14;97307.47;;;3.99;50.36
71917;BME280;59793;46.506;6.674;2023-04-05T03:25:39;97282.28;;;3.80;50.73
71917;BME280;59793;46.506;6.674;2023-04-05T03:28:06;97337.38;;;4.15;50.28
71917;BME280;59793;46.506;6.674;2023-04-05T03:30:32;97343.19;;;4.12;50.55
71917;BME280;59793;46.506;6.674;2023-04-05T03:32:58;97310.88;;;3.99;50.79
71917;BME280;59793;46.506;6.674;2023-04-05T03:35:28;97312.00;;;3.79;51.66
71917;BME280;59793;46.506;6.674;2023-04-05T03:37:55;97309.69;;;3.64;52.03
71917;BME280;59793;46.506;6.674;2023-04-05T03:40:21;97335.94;;;3.81;51.66
71917;BME280;59793;46.506;6.674;2023-04-05T03:42:47;97333.34;;;3.68;51.94
71917;BME280;59793;46.506;6.674;2023-04-05T03:45:12;97330.72;;;3.81;51.69
71917;BME280;59793;46.506;6.674;2023-04-05T03:47:38;97304.38;;;3.55;51.81
71917;BME280;59793;46.506;6.674;2023-04-05T03:50:04;97319.34;;;3.50;52.43
71917;BME280;59793;46.506;6.674;2023-04-05T03:52:30;97298.44;;;3.22;53.28
71917;BME280;59793;46.506;6.674;2023-04-05T03:54:55;97309.34;;;3.24;54.06
71917;BME280;59793;46.506;6.674;2023-04-05T03:57:20;97256.44;;;2.96;53.89
71917;BME280;59793;46.506;6.674;2023-04-05T03:59:46;97290.25;;;3.15;53.58
71917;BME280;59793;46.506;6.674;2023-04-05T04:02:11;97311.88;;;3.29;53.11
71917;BME280;59793;46.506;6.674;2023-04-05T04:04:37;97303.72;;;3.17;53.07
71917;BME280;59793;46.506;6.674;2023-04-05T04:07:02;97288.28;;;3.07;52.82
71917;BME280;59793;46.506;6.674;2023-04-05T04:09:28;97291.69;;;3.21;52.51
71917;BME280;59793;46.506;6.674;2023-04-05T04:11:54;97261.84;;;3.00;52.47
71917;BME280;59793;46.506;6.674;2023-04-05T04:14:21;97302.09;;;3.21;52.80
71917;BME280;59793;46.506;6.674;2023-04-05T04:16:46;97287.63;;;3.15;52.48
71917;BME280;59793;46.506;6.674;2023-04-05T04:19:11;97294.47;;;3.25;52.49
71917;BME280;59793;46.506;6.674;2023-04-05T04:21:37;97306.09;;;3.32;52.22
71917;BME280;59793;46.506;6.674;2023-04-05T04:24:04;97285.63;;;3.26;52.27
71917;BME280;59793;46.506;6.674;2023-04-05T04:26:29;97265.34;;;3.09;52.22
71917;BME280;59793;46.506;6.674;2023-04-05T04:28:55;97315.94;;;3.49;52.08
71917;BME280;59793;46.506;6.674;2023-04-05T04:31:20;97281.59;;;3.33;52.10
71917;BME280;59793;46.506;6.674;2023-04-05T04:33:49;97310.25;;;3.47;51.66
71917;BME280;59793;46.506;6.674;2023-04-05T04:36:15;97323.75;;;3.49;52.02
71917;BME280;59793;46.506;6.674;2023-04-05T04:38:42;97291.28;;;3.14;52.75
71917;BME280;59793;46.506;6.674;2023-04-05T04:41:09;97294.88;;;3.18;52.56
71917;BME280;59793;46.506;6.674;2023-04-05T04:43:35;97326.16;;;3.46;52.33
71917;BME280;59793;46.506;6.674;2023-04-05T04:46:07;97327.72;;;3.47;51.79
71917;BME280;59793;46.506;6.674;2023-04-05T04:48:34;97274.69;;;3.10;52.06
71917;BME280;59793;46.506;6.674;2023-04-05T04:51:02;97322.28;;;3.29;52.37
71917;BME280;59793;46.506;6.674;2023-04-05T04:53:28;97307.50;;;3.11;52.73
71917;BME280;59793;46.506;6.674;2023-04-05T04:55:53;97329.03;;;3.30;52.70
71917;BME280;59793;46.506;6.674;2023-04-05T04:58:20;97333.56;;;3.39;52.64
71917;BME280;59793;46.506;6.674;2023-04-05T05:00:46;97303.00;;;3.30;52.49
71917;BME280;59793;46.506;6.674;2023-04-05T05:03:12;97319.69;;;3.29;52.87
71917;BME280;59793;46.506;6.674;2023-04-05T05:05:42;97336.88;;;3.44;52.69
71917;BME280;59793;46.506;6.674;2023-04-05T05:08:08;97307.22;;;3.26;52.29
71917;BME280;59793;46.506;6.674;2023-04-05T05:10:33;97313.59;;;3.34;52.62
71917;BME280;59793;46.506;6.674;2023-04-05T05:12:59;97300.25;;;3.08;53.11
71917;BME280;59793;46.506;6.674;2023-04-05T05:15:24;97308.72;;;3.14;52.58
71917;BME280;59793;46.506;6.674;2023-04-05T05:17:49;97256.16;;;2.65;53.08
71917;BME280;59793;46.506;6.674;2023-04-05T05:20:17;97307.56;;;3.06;53.30
71917;BME280;59793;46.506;6.674;2023-04-05T05:22:43;97315.00;;;3.13;53.39
71917;BME280;59793;46.506;6.674;2023-04-05T05:25:10;97344.28;;;3.37;53.21
71917;BME280;59793;46.506;6.674;2023-04-05T05:27:36;97325.53;;;3.21;53.35
71917;BME280;59793;46.506;6.674;2023-04-05T05:30:02;97295.00;;;2.94;53.50
71917;BME280;59793;46.506;6.674;2023-04-05T05:32:28;97318.16;;;3.09;53.80
71917;BME280;59793;46.506;6.674;2023-04-05T05:34:53;97322.75;;;2.99;54.30
71917;BME280;59793;46.506;6.674;2023-04-05T05:37:21;97337.25;;;3.05;53.83
71917;BME280;59793;46.506;6.674;2023-04-05T05:39:53;97358.47;;;3.12;54.35
71917;BME280;59793;46.506;6.674;2023-04-05T05:42:18;97305.63;;;2.98;53.93
71917;BME280;59793;46.506;6.674;2023-04-05T05:44:45;97332.50;;;3.26;53.55
71917;BME280;59793;46.506;6.674;2023-04-05T05:47:10;97354.94;;;3.54;53.48
71917;BME280;59793;46.506;6.674;2023-04-05T05:49:36;97335.03;;;3.45;53.37
71917;BME280;59793;46.506;6.674;2023-04-05T05:52:02;97342.19;;;3.53;53.50
71917;BME280;59793;46.506;6.674;2023-04-05T05:54:28;97310.06;;;3.44;53.65
71917;BME280;59793;46.506;6.674;2023-04-05T05:56:53;97314.53;;;3.57;52.38
71917;BME280;59793;46.506;6.674;2023-04-05T05:59:18;97333.31;;;3.81;52.43
71917;BME280;59793;46.506;6.674;2023-04-05T06:01:44;97326.56;;;3.80;52.45
71917;BME280;59793;46.506;6.674;2023-04-05T06:04:14;97347.25;;;4.04;52.57
71917;BME280;59793;46.506;6.674;2023-04-05T06:06:40;97314.03;;;3.82;51.90
71917;BME280;59793;46.506;6.674;2023-04-05T06:09:08;97345.91;;;4.07;51.92
71917;BME280;59793;46.506;6.674;2023-04-05T06:11:33;97349.34;;;4.30;50.77
71917;BME280;59793;46.506;6.674;2023-04-05T06:13:59;97325.63;;;4.18;50.62
71917;BME280;59793;46.506;6.674;2023-04-05T06:16:24;97373.69;;;4.39;50.81
71917;BME280;59793;46.506;6.674;2023-04-05T06:18:51;97344.13;;;4.30;51.12
71917;BME280;59793;46.506;6.674;2023-04-05T06:21:16;97361.72;;;4.38;51.48
71917;BME280;59793;46.506;6.674;2023-04-05T06:23:41;97339.88;;;4.34;51.01
71917;BME280;59793;46.506;6.674;2023-04-05T06:26:08;97371.91;;;4.62;50.58
71917;BME280;59793;46.506;6.674;2023-04-05T06:28:33;97347.38;;;4.63;50.41
71917;BME280;59793;46.506;6.674;2023-04-05T06:30:59;97370.88;;;4.86;50.31
71917;BME280;59793;46.506;6.674;2023-04-05T06:33:24;97375.66;;;5.06;50.28
71917;BME280;59793;46.506;6.674;2023-04-05T06:35:50;97363.81;;;5.09;49.83
71917;BME280;59793;46.506;6.674;2023-04-05T06:38:16;97356.66;;;5.14;50.17
71917;BME280;59793;46.506;6.674;2023-04-05T06:40:41;97332.44;;;5.22;49.04
71917;BME280;59793;46.506;6.674;2023-04-05T06:43:08;97382.34;;;5.66;48.84
71917;BME280;59793;46.506;6.674;2023-04-05T06:45:35;97374.84;;;5.73;49.14
71917;BME280;59793;46.506;6.674;2023-04-05T06:48:00;97389.34;;;5.88;49.13
71917;BME280;59793;46.506;6.674;2023-04-05T06:50:26;97355.13;;;5.75;49.09
71917;BME280;59793;46.506;6.674;2023-04-05T06:52:51;97364.13;;;5.92;49.16
71917;BME280;59793;46.506;6.674;2023-04-05T06:55:16;97366.19;;;6.04;49.24
71917;BME280;59793;46.506;6.674;2023-04-05T06:57:42;97336.72;;;5.81;48.70
71917;BME280;59793;46.506;6.674;2023-04-05T07:00:07;97384.13;;;6.28;48.16
71917;BME280;59793;46.506;6.674;2023-04-05T07:02:35;97374.16;;;6.30;48.40
71917;BME280;59793;46.506;6.674;2023-04-05T07:05:01;97364.19;;;6.58;48.02
71917;BME280;59793;46.506;6.674;2023-04-05T07:07:32;97368.03;;;6.78;47.92
71917;BME280;59793;46.506;6.674;2023-04-05T07:09:58;97359.44;;;6.86;45.74
71917;BME280;59793;46.506;6.674;2023-04-05T07:12:23;97367.59;;;7.02;45.09
71917;BME280;59793;46.506;6.674;2023-04-05T07:14:49;97366.53;;;6.94;46.15
71917;BME280;59793;46.506;6.674;2023-04-05T07:17:14;97372.66;;;6.63;46.67
71917;BME280;59793;46.506;6.674;2023-04-05T07:19:40;97379.91;;;6.66;47.57
71917;BME280;59793;46.506;6.674;2023-04-05T07:22:05;97394.84;;;6.57;47.80
71917;BME280;59793;46.506;6.674;2023-04-05T07:24:31;97365.22;;;6.31;48.55
71917;BME280;59793;46.506;6.674;2023-04-05T07:26:56;97360.47;;;6.33;49.00
71917;BME280;59793;46.506;6.674;2023-04-05T07:29:22;97387.09;;;6.43;48.34
71917;BME280;59793;46.506;6.674;2023-04-05T07:31:47;97336.22;;;6.10;48.41
71917;BME280;59793;46.506;6.674;2023-04-05T07:34:13;97371.66;;;6.25;48.64
71917;BME280;59793;46.506;6.674;2023-04-05T07:36:38;97305.84;;;5.91;48.69
71917;BME280;59793;46.506;6.674;2023-04-05T07:39:04;97346.88;;;6.22;48.53
71917;BME280;59793;46.506;6.674;2023-04-05T07:41:29;97379.13;;;6.66;48.19
71917;BME280;59793;46.506;6.674;2023-04-05T07:44:00;97386.84;;;6.80;48.46
71917;BME280;59793;46.506;6.674;2023-04-05T07:46:26;97400.41;;;6.99;46.98
71917;BME280;59793;46.506;6.674;2023-04-05T07:48:52;97387.91;;;7.13;46.16
71917;BME280;59793;46.506;6.674;2023-04-05T07:51:17;97395.31;;;6.85;45.82
71917;BME280;59793;46.506;6.674;2023-04-05T07:53:43;97337.16;;;6.05;47.90
71917;BME280;59793;46.506;6.674;2023-04-05T07:56:10;97378.06;;;6.58;47.63
71917;BME280;59793;46.506;6.674;2023-04-05T07:58:35;97402.56;;;7.32;46.43
71917;BME280;59793;46.506;6.674;2023-04-05T08:01:04;97356.63;;;7.26;46.05
71917;BME280;59793;46.506;6.674;2023-04-05T08:03:31;97408.84;;;7.48;46.23
71917;BME280;59793;46.506;6.674;2023-04-05T08:05:59;97405.63;;;7.34;46.45
71917;BME280;59793;46.506;6.674;2023-04-05T08:08:32;97412.75;;;7.16;47.25
71917;BME280;59793;46.506;6.674;2023-04-05T08:10:58;97392.09;;;7.14;46.71
71917;BME280;59793;46.506;6.674;2023-04-05T08:13:23;97405.03;;;7.37;46.68
71917;BME280;59793;46.506;6.674;2023-04-05T08:15:49;97376.22;;;6.93;46.66
71917;BME280;59793;46.506;6.674;2023-04-05T08:18:14;97389.16;;;7.33;46.60
71917;BME280;59793;46.506;6.674;2023-04-05T08:20:39;97400.47;;;7.72;47.16
71917;BME280;59793;46.506;6.674;2023-04-05T08:23:05;97324.97;;;7.48;47.32
71917;BME280;59793;46.506;6.674;2023-04-05T08:25:30;97354.72;;;7.61;46.96
71917;BME280;59793;46.506;6.674;2023-04-05T08:27:56;97398.44;;;7.86;46.94
71917;BME280;59793;46.506;6.674;2023-04-05T08:30:21;97356.56;;;7.60;47.42
71917;BME280;59793;46.506;6.674;2023-04-05T08:32:47;97374.47;;;7.41;48.21
71917;BME280;59793;46.506;6.674;2023-04-05T08:35:13;97403.03;;;7.42;48.20
71917;BME280;59793;46.506;6.674;2023-04-05T08:37:38;97399.19;;;7.23;49.15
71917;BME280;59793;46.506;6.674;2023-04-05T08:40:04;97398.50;;;7.60;47.80
71917;BME280;59793;46.506;6.674;2023-04-05T08:42:35;97401.97;;;7.99;49.05
71917;BME280;59793;46.506;6.674;2023-04-05T08:45:08;97402.94;;;8.24;46.60
71917;BME280;59793;46.506;6.674;2023-04-05T08:47:35;97402.41;;;8.40;45.81
71917;BME280;59793;46.506;6.674;2023-04-05T08:50:02;97386.16;;;8.08;46.46
71917;BME280;59793;46.506;6.674;2023-04-05T08:52:28;97397.97;;;7.93;47.04
71917;BME280;59793;46.506;6.674;2023-04-05T08:54:55;97405.63;;;8.07;46.78
71917;BME280;59793;46.506;6.674;2023-04-05T08:57:27;97395.63;;;8.38;45.58
71917;BME280;59793;46.506;6.674;2023-04-05T08:59:54;97329.41;;;8.03;45.58
71917;BME280;59793;46.506;6.674;2023-04-05T09:02:22;97348.59;;;7.86;45.57
71917;BME280;59793;46.506;6.674;2023-04-05T09:04:49;97402.16;;;8.24;45.95
71917;BME280;59793;46.506;6.674;2023-04-05T09:07:16;97350.78;;;7.29;48.50
71917;BME280;59793;46.506;6.674;2023-04-05T09:09:45;97409.13;;;7.81;47.90
71917;BME280;59793;46.506;6.674;2023-04-05T09:12:13;97372.47;;;8.02;47.51
71917;BME280;59793;46.506;6.674;2023-04-05T09:14:39;97388.66;;;8.04;48.14
71917;BME280;59793;46.506;6.674;2023-04-05T09:17:05;97403.50;;;8.30;47.71
71917;BME280;59793;46.506;6.674;2023-04-05T09:19:30;97367.59;;;8.72;45.71
71917;BME280;59793;46.506;6.674;2023-04-05T09:22:04;97404.50;;;8.76;46.47
71917;BME280;59793;46.506;6.674;2023-04-05T09:24:39;97398.31;;;9.01;45.34
71917;BME280;59793;46.506;6.674;2023-04-05T09:29:42;97383.53;;;8.46;47.24
71917;BME280;59793;46.506;6.674;2023-04-05T09:32:10;97373.22;;;8.62;46.86
71917;BME280;59793;46.506;6.674;2023-04-05T09:34:36;97383.75;;;8.83;46.42
71917;BME280;59793;46.506;6.674;2023-04-05T09:37:15;97362.78;;;8.53;46.28
71917;BME280;59793;46.506;6.674;2023-04-05T09:39:41;97388.63;;;8.93;45.56
71917;BME280;59793;46.506;6.674;2023-04-05T09:42:14;97389.72;;;8.71;46.33
71917;BME280;59793;46.506;6.674;2023-04-05T09:44:47;97379.88;;;8.38;46.96
71917;BME280;59793;46.506;6.674;2023-04-05T09:47:16;97379.41;;;8.87;45.38
71917;BME280;59793;46.506;6.674;2023-04-05T09:49:42;97379.72;;;8.65;46.37
71917;BME280;59793;46.506;6.674;2023-04-05T09:52:24;97402.09;;;9.13;46.20
71917;BME280;59793;46.506;6.674;2023-04-05T09:54:52;97394.94;;;8.80;46.52
71917;BME280;59793;46.506;6.674;2023-04-05T09:57:18;97390.94;;;8.95;46.45
71917;BME280;59793;46.506;6.674;2023-04-05T09:59:44;97306.38;;;8.59;45.61
71917;BME280;59793;46.506;6.674;2023-04-05T10:02:10;97368.75;;;9.04;44.77
71917;BME280;59793;46.506;6.674;2023-04-05T10:04:43;97379.72;;;8.65;46.90
71917;BME280;59793;46.506;6.674;2023-04-05T10:07:11;97368.50;;;8.97;46.34
71917;BME280;59793;46.506;6.674;2023-04-05T10:09:41;97371.44;;;9.17;46.32
71917;BME280;59793;46.506;6.674;2023-04-05T10:12:06;97391.63;;;9.25;46.13
71917;BME280;59793;46.506;6.674;2023-04-05T10:14:34;97357.75;;;9.56;43.84
71917;BME280;59793;46.506;6.674;2023-04-05T10:17:15;97380.63;;;10.01;44.09
71917;BME280;59793;46.506;6.674;2023-04-05T10:22:21;97382.50;;;10.01;43.29
71917;BME280;59793;46.506;6.674;2023-04-05T10:24:51;97381.06;;;10.28;43.51
71917;BME280;59793;46.506;6.674;2023-04-05T10:27:30;97387.22;;;10.57;42.31
71917;BME280;59793;46.506;6.674;2023-04-05T10:30:02;97383.28;;;10.50;42.65
71917;BME280;59793;46.506;6.674;2023-04-05T10:35:18;97364.91;;;10.66;41.34
71917;BME280;59793;46.506;6.674;2023-04-05T10:40:22;97372.56;;;11.12;41.46
71917;BME280;59793;46.506;6.674;2023-04-05T10:42:49;97368.34;;;11.23;39.74
71917;BME280;59793;46.506;6.674;2023-04-05T10:45:16;97366.16;;;11.25;39.77
71917;BME280;59793;46.506;6.674;2023-04-05T10:47:57;97371.16;;;11.30;38.86
71917;BME280;59793;46.506;6.674;2023-04-05T10:50:26;97347.59;;;10.93;39.84
71917;BME280;59793;46.506;6.674;2023-04-05T10:52:51;97380.56;;;11.43;40.10
71917;BME280;59793;46.506;6.674;2023-04-05T10:55:20;97357.56;;;11.28;40.22
71917;BME280;59793;46.506;6.674;2023-04-05T10:57:46;97311.84;;;10.80;40.22
71917;BME280;59793;46.506;6.674;2023-04-05T11:00:14;97345.47;;;11.27;39.82
71917;BME280;59793;46.506;6.674;2023-04-05T11:02:40;97352.50;;;11.83;38.49
71917;BME280;59793;46.506;6.674;2023-04-05T11:05:29;97347.41;;;11.74;38.90
71917;BME280;59793;46.506;6.674;2023-04-05T11:08:08;97361.28;;;11.27;40.10
71917;BME280;59793;46.506;6.674;2023-04-05T11:10:36;97361.72;;;12.05;36.68
71917;BME280;59793;46.506;6.674;2023-04-05T11:13:03;97359.03;;;11.85;38.01
71917;BME280;59793;46.506;6.674;2023-04-05T11:15:29;97365.44;;;12.35;36.57
71917;BME280;59793;46.506;6.674;2023-04-05T11:18:20;97357.06;;;12.49;39.23
71917;BME280;59793;46.506;6.674;2023-04-05T11:20:50;97350.03;;;12.37;37.39
71917;BME280;59793;46.506;6.674;2023-04-05T11:23:21;97351.78;;;11.98;38.48
71917;BME280;59793;46.506;6.674;2023-04-05T11:28:43;97324.09;;;10.88;39.88
71917;BME280;59793;46.506;6.674;2023-04-05T11:31:14;97344.75;;;10.86;41.20
71917;BME280;59793;46.506;6.674;2023-04-05T11:36:09;97343.19;;;11.85;38.96
71917;BME280;59793;46.506;6.674;2023-04-05T11:38:35;97299.22;;;12.09;38.83
71917;BME280;59793;46.506;6.674;2023-04-05T11:41:20;97334.03;;;12.14;38.88
71917;BME280;59793;46.506;6.674;2023-04-05T11:43:46;97335.00;;;11.90;38.92
71917;BME280;59793;46.506;6.674;2023-04-05T11:46:15;97297.81;;;11.20;39.41
71917;BME280;59793;46.506;6.674;2023-04-05T11:48:40;97326.22;;;11.70;39.70
71917;BME280;59793;46.506;6.674;2023-04-05T11:51:09;97302.53;;;11.74;39.49
71917;BME280;59793;46.506;6.674;2023-04-05T11:53:35;97334.78;;;12.31;38.48
71917;BME280;59793;46.506;6.674;2023-04-05T11:56:11;97320.34;;;11.77;38.34
71917;BME280;59793;46.506;6.674;2023-04-05T11:58:40;97311.22;;;12.06;36.90
71917;BME280;59793;46.506;6.674;2023-04-05T12:01:06;97309.88;;;11.96;37.42
71917;BME280;59793;46.506;6.674;2023-04-05T12:03:33;97324.22;;;12.31;36.71
71917;BME280;59793;46.506;6.674;2023-04-05T12:06:00;97329.81;;;12.64;34.86
71917;BME280;59793;46.506;6.674;2023-04-05T12:08:39;97323.22;;;12.74;35.22
71917;BME280;59793;46.506;6.674;2023-04-05T12:11:06;97321.88;;;12.10;36.50
71917;BME280;59793;46.506;6.674;2023-04-05T12:13:32;97313.75;;;12.54;35.88
71917;BME280;59793;46.506;6.674;2023-04-05T12:16:01;97309.72;;;12.60;35.28
71917;BME280;59793;46.506;6.674;2023-04-05T12:18:28;97324.50;;;12.80;36.42
71917;BME280;59793;46.506;6.674;2023-04-05T12:20:54;97314.13;;;12.36;36.64
71917;BME280;59793;46.506;6.674;2023-04-05T12:23:23;97307.81;;;12.06;37.75
71917;BME280;59793;46.506;6.674;2023-04-05T12:25:50;97303.59;;;12.75;35.35
71917;BME280;59793;46.506;6.674;2023-04-05T12:28:16;97288.56;;;12.99;35.13
71917;BME280;59793;46.506;6.674;2023-04-05T12:30:54;97302.75;;;13.10;35.42
71917;BME280;59793;46.506;6.674;2023-04-05T12:33:27;97309.41;;;13.92;33.73
71917;BME280;59793;46.506;6.674;2023-04-05T12:35:53;97284.69;;;13.58;33.71
71917;BME280;59793;46.506;6.674;2023-04-05T12:38:18;97290.34;;;13.33;34.29
71917;BME280;59793;46.506;6.674;2023-04-05T12:40:44;97279.06;;;13.17;34.44
71917;BME280;59793;46.506;6.674;2023-04-05T12:43:10;97294.94;;;13.36;34.16
71917;BME280;59793;46.506;6.674;2023-04-05T12:45:36;97300.69;;;13.42;33.87
71917;BME280;59793;46.506;6.674;2023-04-05T12:48:11;97288.00;;;12.89;34.75
71917;BME280;59793;46.506;6.674;2023-04-05T12:50:42;97284.28;;;12.90;34.77
71917;BME280;59793;46.506;6.674;2023-04-05T12:53:14;97258.66;;;12.95;34.46
71917;BME280;59793;46.506;6.674;2023-04-05T12:55:44;97268.47;;;12.94;34.49
71917;BME280;59793;46.506;6.674;2023-04-05T12:58:11;97292.94;;;13.30;33.59
71917;BME280;59793;46.506;6.674;2023-04-05T13:00:38;97252.84;;;13.08;33.62
71917;BME280;59793;46.506;6.674;2023-04-05T13:03:04;97264.63;;;13.11;33.33
71917;BME280;59793;46.506;6.674;2023-04-05T13:05:29;97295.00;;;13.40;33.43
71917;BME280;59793;46.506;6.674;2023-04-05T13:07:56;97287.47;;;14.18;31.22
71917;BME280;59793;46.506;6.674;2023-04-05T13:10:23;97249.69;;;13.95;30.53
71917;BME280;59793;46.506;6.674;2023-04-05T13:12:48;97281.78;;;14.16;31.87
71917;BME280;59793;46.506;6.674;2023-04-05T13:15:15;97245.56;;;14.27;31.36
71917;BME280;59793;46.506;6.674;2023-04-05T13:17:41;97242.16;;;13.24;31.95
71917;BME280;59793;46.506;6.674;2023-04-05T13:20:08;97268.94;;;13.92;31.23
71917;BME280;59793;46.506;6.674;2023-04-05T13:22:33;97242.81;;;14.20;30.63
71917;BME280;59793;46.506;6.674;2023-04-05T13:24:59;97223.53;;;14.20;30.66
71917;BME280;59793;46.506;6.674;2023-04-05T13:27:24;97272.13;;;13.51;33.01
71917;BME280;59793;46.506;6.674;2023-04-05T13:29:50;97269.78;;;14.26;32.61
71917;BME280;59793;46.506;6.674;2023-04-05T13:32:15;97225.56;;;14.60;31.22
71917;BME280;59793;46.506;6.674;2023-04-05T13:34:40;97221.47;;;14.36;30.33